createdAt,value
2018-12-22T00:00:31.792Z,12.10
2018-12-22T00:02:59.344Z,12.10
2018-12-22T00:05:26.764Z,12.10
2018-12-22T00:07:54.253Z,12.00
2018-12-22T00:10:21.728Z,12.00
2018-12-22T00:12:49.181Z,12.00
2018-12-22T00:15:16.640Z,12.00
2018-12-22T00:17:44.087Z,11.90
2018-12-22T00:20:11.552Z,11.90
2018-12-22T00:22:39.010Z,11.90
2018-12-22T00:25:06.732Z,11.80
2018-12-22T00:27:34.270Z,11.70
2018-12-22T00:30:01.989Z,11.80
2018-12-22T00:32:29.473Z,11.80
2018-12-22T00:34:56.996Z,11.70
2018-12-22T00:37:24.388Z,11.70
2018-12-22T00:39:51.866Z,11.70
2018-12-22T00:42:19.480Z,11.80
2018-12-22T00:44:46.936Z,11.90
2018-12-22T00:47:14.387Z,11.90
2018-12-22T00:49:41.955Z,11.80
2018-12-22T00:52:09.608Z,11.80
2018-12-22T00:54:37.072Z,11.80
2018-12-22T00:57:04.737Z,11.80
2018-12-22T00:59:32.496Z,11.90
2018-12-22T01:01:59.984Z,11.90
2018-12-22T01:04:27.621Z,11.90
2018-12-22T01:06:55.296Z,11.90
2018-12-22T01:09:22.772Z,11.90
2018-12-22T01:11:50.295Z,11.90
2018-12-22T01:14:17.752Z,11.90
2018-12-22T01:16:45.213Z,12.00
2018-12-22T01:19:12.768Z,12.00
2018-12-22T01:21:40.220Z,12.00
2018-12-22T01:24:07.784Z,12.00
2018-12-22T01:26:35.244Z,12.00
2018-12-22T01:29:02.693Z,12.00
2018-12-22T01:31:30.144Z,12.10
2018-12-22T01:33:57.616Z,12.00
2018-12-22T01:36:25.066Z,12.00
2018-12-22T01:38:52.611Z,12.00
2018-12-22T01:41:20.066Z,12.00
2018-12-22T01:43:47.528Z,12.00
2018-12-22T01:46:15.004Z,11.90
2018-12-22T01:48:42.471Z,12.00
2018-12-22T01:51:09.911Z,12.00
2018-12-22T01:53:37.456Z,12.00
2018-12-22T01:56:05.235Z,12.00
2018-12-22T01:58:32.789Z,12.00
2018-12-22T02:01:00.234Z,12.00
2018-12-22T02:03:28.005Z,12.00
2018-12-22T02:05:55.487Z,12.00
2018-12-22T02:08:22.963Z,11.90
2018-12-22T02:10:50.415Z,12.00
2018-12-22T02:13:17.831Z,11.90
2018-12-22T02:15:45.294Z,11.90
2018-12-22T02:18:12.952Z,11.80
2018-12-22T02:20:40.489Z,11.90
2018-12-22T02:23:08.061Z,11.90
2018-12-22T02:25:35.541Z,11.90
2018-12-22T02:28:03.197Z,11.90
2018-12-22T02:30:30.657Z,11.90
2018-12-22T02:32:58.114Z,11.90
2018-12-22T02:35:25.589Z,11.90
2018-12-22T02:37:53.131Z,11.90
2018-12-22T02:40:20.693Z,11.90
2018-12-22T02:42:48.280Z,11.90
2018-12-22T02:45:15.772Z,12.00
2018-12-22T02:47:43.305Z,12.00
2018-12-22T02:50:10.920Z,11.90
2018-12-22T02:52:38.373Z,11.90
2018-12-22T02:55:06.834Z,11.90
2018-12-22T02:57:34.281Z,12.00
2018-12-22T03:00:01.792Z,12.00
2018-12-22T03:02:29.328Z,12.00
2018-12-22T03:04:56.797Z,12.00
2018-12-22T03:07:24.232Z,12.00
2018-12-22T03:09:51.721Z,12.00
2018-12-22T03:12:19.225Z,12.00
2018-12-22T03:14:46.721Z,12.00
2018-12-22T03:17:14.271Z,12.00
2018-12-22T03:19:41.869Z,11.90
2018-12-22T03:22:09.292Z,11.90
2018-12-22T03:24:36.973Z,11.90
2018-12-22T03:27:04.532Z,12.00
2018-12-22T03:29:31.986Z,12.00
2018-12-22T03:31:59.543Z,12.00
2018-12-22T03:34:27.081Z,11.90
2018-12-22T03:36:54.513Z,11.90
2018-12-22T03:39:22.000Z,11.90
2018-12-22T03:41:49.462Z,11.90
2018-12-22T03:44:16.945Z,12.00
2018-12-22T03:46:44.473Z,12.00
2018-12-22T03:49:11.900Z,12.00
2018-12-22T03:51:39.411Z,11.90
2018-12-22T03:54:06.935Z,11.90
2018-12-22T03:56:34.508Z,11.80
2018-12-22T03:59:01.968Z,11.70
2018-12-22T04:01:29.531Z,11.60
2018-12-22T04:03:56.983Z,11.60
2018-12-22T04:06:24.408Z,11.60
2018-12-22T04:08:51.988Z,11.60
2018-12-22T04:11:19.421Z,11.60
2018-12-22T04:13:47.005Z,11.60
2018-12-22T04:16:14.572Z,11.60
2018-12-22T04:18:42.121Z,11.60
2018-12-22T04:21:09.581Z,11.50
2018-12-22T04:23:37.034Z,11.50
2018-12-22T04:26:04.502Z,11.50
2018-12-22T04:28:32.001Z,11.50
2018-12-22T04:30:59.477Z,11.60
2018-12-22T04:33:26.970Z,11.60
2018-12-22T04:35:54.397Z,11.60
2018-12-22T04:38:21.883Z,11.60
2018-12-22T04:40:49.348Z,11.70
2018-12-22T04:43:16.779Z,11.60
2018-12-22T04:45:44.252Z,11.60
2018-12-22T04:48:11.806Z,11.60
2018-12-22T04:50:39.268Z,11.70
2018-12-22T04:53:06.735Z,11.70
2018-12-22T04:55:34.214Z,11.80
2018-12-22T04:58:01.746Z,11.90
2018-12-22T05:00:29.173Z,11.90
2018-12-22T05:02:56.652Z,12.00
2018-12-22T05:05:24.213Z,12.10
2018-12-22T05:07:51.669Z,12.10
2018-12-22T05:10:19.241Z,12.10
2018-12-22T05:12:46.871Z,12.20
2018-12-22T05:15:14.296Z,12.20
2018-12-22T05:17:41.722Z,12.30
2018-12-22T05:20:09.361Z,12.30
2018-12-22T05:22:36.837Z,12.20
2018-12-22T05:25:04.384Z,12.30
2018-12-22T05:27:32.021Z,12.30
2018-12-22T05:29:59.498Z,12.30
2018-12-22T05:32:26.925Z,12.20
2018-12-22T05:34:55.488Z,12.20
2018-12-22T05:37:23.009Z,12.20
2018-12-22T05:39:50.448Z,12.20
2018-12-22T05:42:17.917Z,12.10
2018-12-22T05:44:45.388Z,12.10
2018-12-22T05:47:12.817Z,12.10
2018-12-22T05:49:40.279Z,12.10
2018-12-22T05:52:07.832Z,12.10
2018-12-22T05:54:35.308Z,12.00
2018-12-22T05:57:02.836Z,11.90
2018-12-22T05:59:30.285Z,11.90
2018-12-22T06:01:57.772Z,11.90
2018-12-22T06:04:25.199Z,11.90
2018-12-22T06:06:52.681Z,11.90
2018-12-22T06:09:20.233Z,11.80
2018-12-22T06:11:47.701Z,11.80
2018-12-22T06:14:15.246Z,11.90
2018-12-22T06:16:42.726Z,11.90
2018-12-22T06:19:10.170Z,12.00
2018-12-22T06:21:37.636Z,11.90
2018-12-22T06:24:05.092Z,11.90
2018-12-22T06:26:32.737Z,12.00
2018-12-22T06:29:00.201Z,12.00
2018-12-22T06:31:27.635Z,12.00
2018-12-22T06:33:55.215Z,11.90
2018-12-22T06:36:22.672Z,11.90
2018-12-22T06:38:50.113Z,11.90
2018-12-22T06:41:17.609Z,11.90
2018-12-22T06:43:45.045Z,12.00
2018-12-22T06:46:12.510Z,12.00
2018-12-22T06:48:40.113Z,12.00
2018-12-22T06:51:07.616Z,12.00
2018-12-22T06:53:35.164Z,12.00
2018-12-22T06:56:02.856Z,12.00
2018-12-22T06:58:30.392Z,12.00
2018-12-22T07:00:57.862Z,12.00
2018-12-22T07:03:25.306Z,11.90
2018-12-22T07:05:53.164Z,11.90
2018-12-22T07:08:20.937Z,11.70
2018-12-22T07:10:48.402Z,11.60
2018-12-22T07:13:15.859Z,11.40
2018-12-22T07:15:43.409Z,11.30
2018-12-22T07:18:10.968Z,11.00
2018-12-22T07:20:38.429Z,10.50
2018-12-22T07:23:05.886Z,10.00
2018-12-22T07:25:33.441Z,9.80
2018-12-22T07:28:00.896Z,9.50
2018-12-22T07:30:28.648Z,9.40
2018-12-22T07:32:57.182Z,9.30
2018-12-22T07:35:24.979Z,9.20
2018-12-22T07:37:52.474Z,9.10
2018-12-22T07:40:19.928Z,9.10
2018-12-22T07:42:47.349Z,9.10
2018-12-22T07:45:14.810Z,9.10
2018-12-22T07:47:42.298Z,9.10
2018-12-22T07:50:09.722Z,9.20
2018-12-22T07:52:37.145Z,9.30
2018-12-22T07:55:04.660Z,9.30
2018-12-22T07:57:32.086Z,9.40
2018-12-22T07:59:59.573Z,9.40
2018-12-22T08:02:27.133Z,9.40
2018-12-22T08:04:54.680Z,9.60
2018-12-22T08:07:22.097Z,9.80
2018-12-22T08:09:49.609Z,9.80
2018-12-22T08:12:17.069Z,9.90
2018-12-22T08:14:44.621Z,10.00
2018-12-22T08:17:12.049Z,10.00
2018-12-22T08:19:39.493Z,10.00
2018-12-22T08:22:08.533Z,10.00
2018-12-22T08:24:36.406Z,10.00
2018-12-22T08:27:03.861Z,10.00
2018-12-22T08:29:31.323Z,10.10
2018-12-22T08:31:58.750Z,10.10
2018-12-22T08:34:26.231Z,10.10
2018-12-22T08:36:54.500Z,10.10
2018-12-22T08:39:22.260Z,10.10
2018-12-22T08:41:49.721Z,10.10
2018-12-22T08:44:17.221Z,10.10
2018-12-22T08:46:44.736Z,10.20
2018-12-22T08:49:12.201Z,10.20
2018-12-22T08:51:39.665Z,10.30
2018-12-22T08:54:07.113Z,10.30
2018-12-22T08:56:34.669Z,10.30
2018-12-22T08:59:02.328Z,10.30
2018-12-22T09:01:29.895Z,10.40
2018-12-22T09:03:57.321Z,10.40
2018-12-22T09:06:25.021Z,10.40
2018-12-22T09:08:53.933Z,10.50
2018-12-22T09:11:21.567Z,10.40
2018-12-22T09:13:49.023Z,10.40
2018-12-22T09:16:16.577Z,10.40
2018-12-22T09:18:44.136Z,10.40
2018-12-22T09:21:11.674Z,10.40
2018-12-22T09:23:39.186Z,10.40
2018-12-22T09:26:08.479Z,10.30
2018-12-22T09:28:36.237Z,10.30
2018-12-22T09:31:03.690Z,10.20
2018-12-22T09:33:31.230Z,10.10
2018-12-22T09:35:58.686Z,10.10
2018-12-22T09:38:26.151Z,10.00
2018-12-22T09:40:53.629Z,10.00
2018-12-22T09:43:21.112Z,10.00
2018-12-22T09:45:48.732Z,9.90
2018-12-22T09:48:16.224Z,9.90
2018-12-22T09:50:43.741Z,9.90
2018-12-22T09:53:11.168Z,9.90
2018-12-22T09:55:38.754Z,9.80
2018-12-22T09:58:06.210Z,9.80
2018-12-22T10:00:33.676Z,9.80
2018-12-22T10:03:01.269Z,9.80
2018-12-22T10:05:28.789Z,9.80
2018-12-22T10:07:56.235Z,9.80
2018-12-22T10:10:23.713Z,9.90
2018-12-22T10:12:51.249Z,10.00
2018-12-22T10:15:18.677Z,10.00
2018-12-22T10:17:46.176Z,10.10
2018-12-22T10:20:16.185Z,10.10
2018-12-22T10:22:43.750Z,10.10
2018-12-22T10:25:11.257Z,10.10
2018-12-22T10:27:38.753Z,10.10
2018-12-22T10:30:08.829Z,10.10
2018-12-22T10:32:36.347Z,10.00
2018-12-22T10:35:11.349Z,9.90
2018-12-22T10:37:38.925Z,9.90
2018-12-22T10:40:08.448Z,9.80
2018-12-22T10:42:36.155Z,9.80
2018-12-22T10:45:05.738Z,9.80
2018-12-22T10:47:33.268Z,9.70
2018-12-22T10:50:00.820Z,9.70
2018-12-22T10:52:28.241Z,9.70
2018-12-22T10:54:55.726Z,9.80
2018-12-22T10:57:23.400Z,9.80
2018-12-22T10:59:50.957Z,9.90
2018-12-22T11:02:18.514Z,10.00
2018-12-22T11:04:46.011Z,10.10
2018-12-22T11:07:13.551Z,10.10
2018-12-22T11:09:40.993Z,10.20
2018-12-22T11:12:08.537Z,10.30
2018-12-22T11:14:35.965Z,10.40
2018-12-22T11:17:03.659Z,10.60
2018-12-22T11:19:31.116Z,10.60
2018-12-22T11:21:58.577Z,10.60
2018-12-22T11:24:26.024Z,10.60
2018-12-22T11:26:53.489Z,10.60
2018-12-22T11:29:20.977Z,10.70
2018-12-22T11:31:48.481Z,10.80
2018-12-22T11:34:15.961Z,10.80
2018-12-22T11:36:43.516Z,10.90
2018-12-22T11:39:10.957Z,11.00
2018-12-22T11:41:38.387Z,11.20
2018-12-22T11:44:05.941Z,11.30
2018-12-22T11:46:33.468Z,11.40
2018-12-22T11:49:01.083Z,11.50
2018-12-22T11:51:28.677Z,11.40
2018-12-22T11:53:56.180Z,11.40
2018-12-22T11:56:23.865Z,11.30
2018-12-22T11:58:51.316Z,11.30
2018-12-22T12:01:19.003Z,11.30
2018-12-22T12:03:46.651Z,11.30
2018-12-22T12:06:14.085Z,11.40
2018-12-22T12:08:41.585Z,11.50
2018-12-22T12:11:09.188Z,11.60
2018-12-22T12:13:36.817Z,11.60
2018-12-22T12:16:07.381Z,11.60
2018-12-22T12:18:41.227Z,11.60
2018-12-22T12:21:08.906Z,11.60
2018-12-22T12:23:36.549Z,11.70
2018-12-22T12:26:04.213Z,11.70
2018-12-22T12:28:31.809Z,11.70
2018-12-22T12:30:59.639Z,11.80
2018-12-22T12:33:27.300Z,11.80
2018-12-22T12:35:54.978Z,11.90
2018-12-22T12:38:22.413Z,11.90
2018-12-22T12:40:50.110Z,11.90
2018-12-22T12:43:17.550Z,12.00
2018-12-22T12:45:45.009Z,12.10
2018-12-22T12:48:12.941Z,12.20
2018-12-22T12:50:42.521Z,12.10
2018-12-22T12:53:10.025Z,12.10
2018-12-22T12:55:37.566Z,12.30
2018-12-22T12:58:05.073Z,12.40
2018-12-22T13:00:32.666Z,12.40
2018-12-22T13:03:00.227Z,12.40
2018-12-22T13:05:27.732Z,12.40
2018-12-22T13:07:55.288Z,12.40
2018-12-22T13:10:22.870Z,12.30
2018-12-22T13:12:57.814Z,12.20
2018-12-22T13:15:25.289Z,12.10
2018-12-22T13:17:52.806Z,12.00
2018-12-22T13:20:20.258Z,12.10
2018-12-22T13:22:47.810Z,12.30
2018-12-22T13:25:15.258Z,12.50
2018-12-22T13:27:42.737Z,12.50
2018-12-22T13:30:12.207Z,12.70
2018-12-22T13:32:39.688Z,12.70
2018-12-22T13:35:09.397Z,12.70
2018-12-22T13:37:36.957Z,12.70
2018-12-22T13:40:09.517Z,12.60
2018-12-22T13:42:37.345Z,12.60
2018-12-22T13:45:09.772Z,12.70
2018-12-22T13:47:37.688Z,12.50
2018-12-22T13:50:13.502Z,12.40
2018-12-22T13:52:41.148Z,12.30
2018-12-22T13:55:09.462Z,12.30
2018-12-22T13:57:43.041Z,12.20
2018-12-22T14:00:16.537Z,12.20
2018-12-22T14:02:44.190Z,12.20
2018-12-22T14:05:18.102Z,12.20
2018-12-22T14:07:45.577Z,12.20
2018-12-22T14:10:13.507Z,12.30
2018-12-22T14:12:40.911Z,12.30
2018-12-22T14:15:15.606Z,12.30
2018-12-22T14:17:46.697Z,12.30
2018-12-22T14:20:14.309Z,12.30
2018-12-22T14:22:41.975Z,12.20
2018-12-22T14:25:12.485Z,12.20
2018-12-22T14:27:39.967Z,12.10
2018-12-22T14:30:12.060Z,12.10
2018-12-22T14:32:39.664Z,12.10
2018-12-22T14:35:11.562Z,12.00
2018-12-22T14:37:39.061Z,12.00
2018-12-22T14:40:11.190Z,12.00
2018-12-22T14:42:38.848Z,12.00
2018-12-22T14:45:10.877Z,12.00
2018-12-22T14:47:38.314Z,12.00
2018-12-22T14:50:12.978Z,11.90
2018-12-22T14:52:40.400Z,12.00
2018-12-22T14:55:11.056Z,11.90
2018-12-22T14:57:56.125Z,11.90
2018-12-22T15:00:23.692Z,11.80
2018-12-22T15:02:51.180Z,11.70
2018-12-22T15:05:18.852Z,11.60
2018-12-22T15:07:46.377Z,11.50
2018-12-22T15:10:13.944Z,11.50
2018-12-22T15:12:41.409Z,11.40
2018-12-22T15:15:10.700Z,11.40
2018-12-22T15:17:41.236Z,11.40
2018-12-22T15:20:16.909Z,11.40
2018-12-22T15:22:44.388Z,11.30
2018-12-22T15:25:11.905Z,11.20
2018-12-22T15:27:39.335Z,11.20
2018-12-22T15:30:11.121Z,11.10
2018-12-22T15:32:44.240Z,11.10
2018-12-22T15:35:08.883Z,11.10
2018-12-22T15:37:36.314Z,11.10
2018-12-22T15:40:08.553Z,11.00
2018-12-22T15:42:36.153Z,11.00
2018-12-22T15:45:07.434Z,11.00
2018-12-22T15:47:34.965Z,10.90
2018-12-22T15:50:03.350Z,10.90
2018-12-22T15:52:30.911Z,10.80
2018-12-22T15:54:58.349Z,10.70
2018-12-22T15:57:26.134Z,10.70
2018-12-22T15:59:53.636Z,10.70
2018-12-22T16:02:21.091Z,10.70
2018-12-22T16:04:48.605Z,10.60
2018-12-22T16:07:16.153Z,10.60
2018-12-22T16:09:43.812Z,10.60
2018-12-22T16:12:11.271Z,10.50
2018-12-22T16:14:38.735Z,10.50
2018-12-22T16:17:06.369Z,10.40
2018-12-22T16:19:34.057Z,10.40
2018-12-22T16:22:01.625Z,10.40
2018-12-22T16:24:29.370Z,10.40
2018-12-22T16:26:56.828Z,10.40
2018-12-22T16:29:24.423Z,10.40
2018-12-22T16:31:52.167Z,10.40
2018-12-22T16:34:19.668Z,10.40
2018-12-22T16:36:47.133Z,10.40
2018-12-22T16:39:14.640Z,10.40
2018-12-22T16:41:42.069Z,10.30
2018-12-22T16:44:09.733Z,10.30
2018-12-22T16:46:37.310Z,10.30
2018-12-22T16:49:04.765Z,10.30
2018-12-22T16:51:32.378Z,10.30
2018-12-22T16:53:59.990Z,10.30
2018-12-22T16:56:27.449Z,10.30
2018-12-22T16:58:56.139Z,10.40
2018-12-22T17:01:28.185Z,10.30
2018-12-22T17:03:55.653Z,10.30
2018-12-22T17:06:23.136Z,10.20
2018-12-22T17:08:50.869Z,10.30
2018-12-22T17:11:18.409Z,10.20
2018-12-22T17:13:45.999Z,10.30
2018-12-22T17:16:13.670Z,10.20
2018-12-22T17:18:41.140Z,10.20
2018-12-22T17:21:13.173Z,10.20
2018-12-22T17:23:46.115Z,10.30
2018-12-22T17:26:13.622Z,10.30
2018-12-22T17:28:41.149Z,10.20
2018-12-22T17:31:08.866Z,10.20
2018-12-22T17:33:36.493Z,10.20
2018-12-22T17:36:04.593Z,10.20
2018-12-22T17:38:32.508Z,10.30
2018-12-22T17:41:00.001Z,10.30
2018-12-22T17:43:27.629Z,10.30
2018-12-22T17:45:55.121Z,10.20
2018-12-22T17:48:22.584Z,10.20
2018-12-22T17:50:50.141Z,10.20
2018-12-22T17:53:17.827Z,10.20
2018-12-22T17:55:45.356Z,10.30
2018-12-22T17:58:12.829Z,10.30
2018-12-22T18:00:40.342Z,10.30
2018-12-22T18:03:09.502Z,10.20
2018-12-22T18:05:37.025Z,10.20
2018-12-22T18:08:04.680Z,10.20
2018-12-22T18:10:32.353Z,10.20
2018-12-22T18:12:59.837Z,10.20
2018-12-22T18:15:27.684Z,10.20
2018-12-22T18:17:55.229Z,10.20
2018-12-22T18:20:22.692Z,10.20
2018-12-22T18:22:50.141Z,10.10
2018-12-22T18:25:19.587Z,10.10
2018-12-22T18:27:49.310Z,10.00
2018-12-22T18:30:16.817Z,10.00
2018-12-22T18:32:45.379Z,9.90
2018-12-22T18:35:13.066Z,9.90
2018-12-22T18:37:40.518Z,9.90
2018-12-22T18:40:11.160Z,10.00
2018-12-22T18:42:38.600Z,9.90
2018-12-22T18:45:09.747Z,9.90
2018-12-22T18:47:37.317Z,10.00
2018-12-22T18:50:12.238Z,9.90
2018-12-22T18:52:39.904Z,9.80
2018-12-22T18:55:08.896Z,9.70
2018-12-22T18:57:36.566Z,9.60
2018-12-22T19:00:12.039Z,9.60
2018-12-22T19:02:39.457Z,9.60
2018-12-22T19:05:08.070Z,9.60
2018-12-22T19:07:35.697Z,9.60
2018-12-22T19:10:05.935Z,9.60
2018-12-22T19:12:33.365Z,9.60
2018-12-22T19:15:01.050Z,9.60
2018-12-22T19:17:28.685Z,9.60
2018-12-22T19:19:56.113Z,9.50
2018-12-22T19:22:23.718Z,9.50
2018-12-22T19:24:51.173Z,9.40
2018-12-22T19:27:18.638Z,9.50
2018-12-22T19:29:46.190Z,9.40
2018-12-22T19:32:13.620Z,9.40
2018-12-22T19:34:41.116Z,9.30
2018-12-22T19:37:08.765Z,9.30
2018-12-22T19:39:36.230Z,9.30
2018-12-22T19:42:03.784Z,9.20
2018-12-22T19:44:31.329Z,9.20
2018-12-22T19:46:58.785Z,9.20
2018-12-22T19:49:26.257Z,9.20
2018-12-22T19:51:53.819Z,9.20
2018-12-22T19:54:21.246Z,9.20
2018-12-22T19:56:48.673Z,9.20
2018-12-22T19:59:16.171Z,9.20
2018-12-22T20:01:43.649Z,9.20
2018-12-22T20:04:11.077Z,9.20
2018-12-22T20:06:38.644Z,9.30
2018-12-22T20:09:06.130Z,9.20
2018-12-22T20:11:33.757Z,9.30
2018-12-22T20:14:01.235Z,9.20
2018-12-22T20:16:28.694Z,9.30
2018-12-22T20:18:56.185Z,9.20
2018-12-22T20:21:23.710Z,9.20
2018-12-22T20:23:51.160Z,9.20
2018-12-22T20:26:18.722Z,9.30
2018-12-22T20:28:46.281Z,9.30
2018-12-22T20:31:13.730Z,9.30
2018-12-22T20:33:41.205Z,9.40
2018-12-22T20:36:08.755Z,9.30
2018-12-22T20:38:36.308Z,9.30
2018-12-22T20:41:03.861Z,9.30
2018-12-22T20:43:31.325Z,9.30
2018-12-22T20:45:58.763Z,9.20
2018-12-22T20:48:26.245Z,9.20
2018-12-22T20:50:53.711Z,9.10
2018-12-22T20:53:24.620Z,9.00
2018-12-22T20:55:52.049Z,9.00
2018-12-22T20:58:19.554Z,9.00
2018-12-22T21:00:47.036Z,9.00
2018-12-22T21:03:14.568Z,8.90
2018-12-22T21:05:44.673Z,8.90
2018-12-22T21:08:12.199Z,8.80
2018-12-22T21:10:39.719Z,8.80
2018-12-22T21:13:07.164Z,8.70
2018-12-22T21:15:34.806Z,8.60
2018-12-22T21:18:02.329Z,8.50
2018-12-22T21:20:29.762Z,8.50
2018-12-22T21:22:57.289Z,8.50
2018-12-22T21:25:24.756Z,8.50
2018-12-22T21:27:52.213Z,8.60
2018-12-22T21:30:19.870Z,8.60
2018-12-22T21:32:47.357Z,8.60
2018-12-22T21:35:14.892Z,8.50
2018-12-22T21:37:42.542Z,8.50
2018-12-22T21:40:10.003Z,8.60
2018-12-22T21:42:37.562Z,8.70
2018-12-22T21:45:05.196Z,8.70
2018-12-22T21:47:32.686Z,8.70
2018-12-22T21:50:00.284Z,8.80
2018-12-22T21:52:27.760Z,8.80
2018-12-22T21:54:55.198Z,8.80
2018-12-22T21:57:22.813Z,8.80
2018-12-22T21:59:50.258Z,8.80
2018-12-22T22:02:17.680Z,8.80
2018-12-22T22:04:45.189Z,8.80
2018-12-22T22:07:12.638Z,8.90
2018-12-22T22:09:40.098Z,8.90
2018-12-22T22:12:07.606Z,8.90
2018-12-22T22:14:35.130Z,8.90
2018-12-22T22:17:02.582Z,8.90
2018-12-22T22:19:30.135Z,8.90
2018-12-22T22:21:57.714Z,8.90
2018-12-22T22:24:25.149Z,8.90
2018-12-22T22:26:52.620Z,8.90
2018-12-22T22:29:20.044Z,8.90
2018-12-22T22:31:47.504Z,9.00
2018-12-22T22:34:15.781Z,9.10
2018-12-22T22:36:43.209Z,9.20
2018-12-22T22:39:10.707Z,9.20
2018-12-22T22:41:38.173Z,9.20
2018-12-22T22:44:05.718Z,9.20
2018-12-22T22:46:33.177Z,9.20
2018-12-22T22:49:00.841Z,9.10
2018-12-22T22:51:28.317Z,9.10
2018-12-22T22:53:55.758Z,9.10
2018-12-22T22:56:23.325Z,9.10
2018-12-22T22:58:50.769Z,9.10
2018-12-22T23:01:18.237Z,9.20
2018-12-22T23:03:45.780Z,9.20
2018-12-22T23:06:13.205Z,9.20
2018-12-22T23:08:40.805Z,9.10
2018-12-22T23:11:08.365Z,9.10
2018-12-22T23:13:35.827Z,9.10
2018-12-22T23:16:03.391Z,9.20
2018-12-22T23:18:30.933Z,9.20
2018-12-22T23:20:58.397Z,9.30
2018-12-22T23:23:25.825Z,9.30
2018-12-22T23:25:53.369Z,9.30
2018-12-22T23:28:20.799Z,9.20
2018-12-22T23:30:48.220Z,9.20
2018-12-22T23:33:15.776Z,9.20
2018-12-22T23:35:43.342Z,9.20
2018-12-22T23:38:10.761Z,9.20
2018-12-22T23:40:38.247Z,9.20
2018-12-22T23:43:05.708Z,9.20
2018-12-22T23:45:33.166Z,9.20
2018-12-22T23:48:00.809Z,9.30
2018-12-22T23:50:28.232Z,9.30
2018-12-22T23:52:55.916Z,9.30
2018-12-22T23:55:23.526Z,9.20
2018-12-22T23:57:50.944Z,9.10
